createdAt,value
2022-12-22T00:02:23.063Z,91.19
2022-12-22T00:04:49.334Z,91.30
2022-12-22T00:07:15.630Z,90.91
2022-12-22T00:09:41.996Z,90.77
2022-12-22T00:12:08.433Z,90.64
2022-12-22T00:14:34.803Z,91.04
2022-12-22T00:17:01.245Z,91.37
2022-12-22T00:19:27.498Z,91.34
2022-12-22T00:21:53.894Z,91.48
2022-12-22T00:24:20.204Z,91.45
2022-12-22T00:26:46.554Z,91.46
2022-12-22T00:29:12.913Z,91.42
2022-12-22T00:31:39.253Z,91.18
2022-12-22T00:34:05.590Z,90.84
2022-12-22T00:36:31.953Z,90.84
2022-12-22T00:38:58.348Z,91.02
2022-12-22T00:41:24.710Z,91.14
2022-12-22T00:43:51.038Z,91.20
2022-12-22T00:46:17.449Z,91.27
2022-12-22T00:48:44.099Z,91.42
2022-12-22T00:51:10.443Z,91.35
2022-12-22T00:53:36.803Z,91.22
2022-12-22T00:56:03.187Z,91.20
2022-12-22T00:58:29.507Z,91.24
2022-12-22T01:00:55.886Z,91.59
2022-12-22T01:03:22.309Z,91.80
2022-12-22T01:05:48.595Z,91.89
2022-12-22T01:08:14.956Z,91.77
2022-12-22T01:10:41.336Z,91.71
2022-12-22T01:13:07.650Z,91.87
2022-12-22T01:15:34.083Z,92.01
2022-12-22T01:18:00.437Z,92.19
2022-12-22T01:20:26.837Z,92.20
2022-12-22T01:22:53.197Z,91.87
2022-12-22T01:25:19.544Z,91.75
2022-12-22T01:27:45.865Z,91.92
2022-12-22T01:30:12.227Z,92.00
2022-12-22T01:32:38.579Z,91.83
2022-12-22T01:35:04.978Z,91.56
2022-12-22T01:37:31.364Z,91.61
2022-12-22T01:39:57.700Z,91.71
2022-12-22T01:42:24.237Z,91.76
2022-12-22T01:44:50.580Z,91.67
2022-12-22T01:47:16.959Z,91.83
2022-12-22T01:49:43.361Z,92.03
2022-12-22T01:52:09.600Z,92.23
2022-12-22T01:54:35.971Z,92.45
2022-12-22T01:57:02.288Z,92.43
2022-12-22T01:59:28.670Z,92.44
2022-12-22T02:01:55.074Z,92.30
2022-12-22T02:04:21.351Z,92.41
2022-12-22T02:06:47.666Z,92.19
2022-12-22T02:09:14.028Z,91.76
2022-12-22T02:11:40.465Z,91.87
2022-12-22T02:14:06.846Z,92.27
2022-12-22T02:16:33.216Z,92.52
2022-12-22T02:18:59.661Z,92.64
2022-12-22T02:21:25.949Z,92.89
2022-12-22T02:23:52.358Z,92.74
2022-12-22T02:26:19.015Z,92.68
2022-12-22T02:28:45.506Z,92.54
2022-12-22T02:31:11.925Z,92.44
2022-12-22T02:33:38.241Z,92.43
2022-12-22T02:36:04.592Z,92.50
2022-12-22T02:38:30.970Z,92.41
2022-12-22T02:40:57.320Z,91.93
2022-12-22T02:43:23.692Z,91.58
2022-12-22T02:45:50.006Z,91.02
2022-12-22T02:48:16.389Z,90.97
2022-12-22T02:50:42.797Z,91.08
2022-12-22T02:53:09.175Z,91.07
2022-12-22T02:55:35.570Z,91.35
2022-12-22T02:58:01.949Z,91.63
2022-12-22T03:00:28.409Z,91.83
2022-12-22T03:02:54.919Z,91.75
2022-12-22T03:05:21.122Z,91.52
2022-12-22T03:07:47.459Z,91.49
2022-12-22T03:10:13.817Z,91.79
2022-12-22T03:12:40.211Z,91.92
2022-12-22T03:15:06.624Z,91.83
2022-12-22T03:17:33.008Z,91.79
2022-12-22T03:19:59.352Z,91.86
2022-12-22T03:22:25.686Z,91.82
2022-12-22T03:24:52.001Z,91.83
2022-12-22T03:27:18.340Z,91.61
2022-12-22T03:29:44.657Z,91.61
2022-12-22T03:32:11.036Z,91.71
2022-12-22T03:34:37.363Z,91.86
2022-12-22T03:37:03.748Z,91.89
2022-12-22T03:39:30.058Z,91.71
2022-12-22T03:41:56.438Z,92.06
2022-12-22T03:44:22.761Z,92.25
2022-12-22T03:46:49.227Z,92.55
2022-12-22T03:49:15.427Z,92.76
2022-12-22T03:51:41.798Z,92.86
2022-12-22T03:54:08.142Z,92.91
2022-12-22T03:56:34.515Z,92.88
2022-12-22T03:59:00.879Z,93.04
2022-12-22T04:01:27.359Z,93.11
2022-12-22T04:03:53.553Z,93.45
2022-12-22T04:06:19.904Z,93.31
2022-12-22T04:08:46.261Z,93.41
2022-12-22T04:11:12.602Z,93.46
2022-12-22T04:13:38.946Z,93.39
2022-12-22T04:16:05.343Z,93.53
2022-12-22T04:18:31.635Z,93.67
2022-12-22T04:20:58.019Z,93.55
2022-12-22T04:23:24.366Z,93.30
2022-12-22T04:25:50.709Z,93.27
2022-12-22T04:28:17.068Z,93.09
2022-12-22T04:30:43.364Z,92.99
2022-12-22T04:33:09.721Z,92.81
2022-12-22T04:35:36.132Z,93.11
2022-12-22T04:38:02.450Z,93.17
2022-12-22T04:40:28.811Z,93.34
2022-12-22T04:42:55.141Z,93.51
2022-12-22T04:45:21.515Z,93.49
2022-12-22T04:47:47.951Z,93.35
2022-12-22T04:50:14.325Z,93.19
2022-12-22T04:52:40.715Z,93.17
2022-12-22T04:55:07.048Z,93.39
2022-12-22T04:57:40.048Z,93.56
2022-12-22T04:59:59.719Z,93.85
2022-12-22T05:02:26.186Z,93.72
2022-12-22T05:04:52.375Z,93.72
2022-12-22T05:07:18.774Z,93.71
2022-12-22T05:09:45.141Z,93.66
2022-12-22T05:12:11.483Z,93.97
2022-12-22T05:14:37.818Z,94.17
2022-12-22T05:17:04.206Z,94.16
2022-12-22T05:19:31.046Z,94.37
2022-12-22T05:21:56.904Z,94.49
2022-12-22T05:24:23.250Z,94.56
2022-12-22T05:26:49.631Z,94.26
2022-12-22T05:29:15.979Z,94.11
2022-12-22T05:31:47.108Z,93.88
2022-12-22T05:34:08.681Z,94.25
2022-12-22T05:36:35.104Z,94.24
2022-12-22T05:39:01.413Z,94.30
2022-12-22T05:41:27.751Z,94.58
2022-12-22T05:43:54.151Z,94.60
2022-12-22T05:46:20.594Z,94.34
2022-12-22T05:48:46.867Z,93.87
2022-12-22T05:51:13.211Z,93.57
2022-12-22T05:53:39.589Z,93.47
2022-12-22T05:56:05.943Z,93.39
2022-12-22T05:58:32.299Z,93.48
2022-12-22T06:00:58.670Z,93.58
2022-12-22T06:03:25.174Z,93.51
2022-12-22T06:05:51.389Z,93.16
2022-12-22T06:08:17.733Z,93.05
2022-12-22T06:10:44.085Z,92.95
2022-12-22T06:13:10.441Z,92.58
2022-12-22T06:15:36.842Z,92.12
2022-12-22T06:18:03.179Z,91.43
2022-12-22T06:20:29.523Z,90.64
2022-12-22T06:22:55.910Z,90.29
2022-12-22T06:25:22.285Z,89.50
2022-12-22T06:27:48.586Z,88.24
2022-12-22T06:30:14.928Z,87.85
2022-12-22T06:32:41.320Z,86.79
2022-12-22T06:35:07.784Z,85.67
2022-12-22T06:37:34.067Z,84.50
2022-12-22T06:40:00.421Z,83.81
2022-12-22T06:42:26.786Z,83.62
2022-12-22T06:44:53.173Z,82.71
2022-12-22T06:47:19.482Z,81.16
2022-12-22T06:49:45.841Z,80.41
2022-12-22T06:52:12.204Z,79.49
2022-12-22T06:54:38.579Z,77.91
2022-12-22T06:57:04.942Z,77.83
2022-12-22T06:59:31.430Z,77.17
2022-12-22T07:01:57.963Z,77.02
2022-12-22T07:04:24.143Z,76.62
2022-12-22T07:06:50.465Z,75.98
2022-12-22T07:09:16.827Z,76.07
2022-12-22T07:11:43.173Z,75.80
2022-12-22T07:14:09.635Z,76.98
2022-12-22T07:16:36.052Z,77.68
2022-12-22T07:19:02.361Z,78.95
2022-12-22T07:21:28.672Z,78.60
2022-12-22T07:23:55.054Z,78.36
2022-12-22T07:26:21.369Z,78.09
2022-12-22T07:28:47.753Z,78.09
2022-12-22T07:31:14.144Z,77.92
2022-12-22T07:33:40.443Z,77.83
2022-12-22T07:36:06.779Z,78.08
2022-12-22T07:38:35.568Z,78.05
2022-12-22T07:41:04.511Z,77.16
2022-12-22T07:43:25.783Z,77.23
2022-12-22T07:45:52.141Z,77.75
2022-12-22T07:48:18.506Z,77.28
2022-12-22T07:50:44.833Z,76.10
2022-12-22T07:53:11.158Z,74.86
2022-12-22T07:55:37.518Z,74.84
2022-12-22T07:58:03.824Z,75.03
2022-12-22T08:00:30.321Z,73.72
2022-12-22T08:02:56.926Z,71.50
2022-12-22T08:05:23.168Z,72.76
2022-12-22T08:07:49.503Z,72.98
2022-12-22T08:10:15.825Z,72.31
2022-12-22T08:12:42.235Z,70.80
2022-12-22T08:15:08.524Z,70.91
2022-12-22T08:17:34.917Z,69.36
2022-12-22T08:20:01.276Z,69.24
2022-12-22T08:22:27.613Z,68.55
2022-12-22T08:24:53.955Z,67.27
2022-12-22T08:27:25.970Z,66.67
2022-12-22T08:29:46.653Z,65.74
2022-12-22T08:32:13.072Z,65.76
2022-12-22T08:34:39.413Z,65.40
2022-12-22T08:37:05.815Z,64.54
2022-12-22T08:39:32.158Z,64.39
2022-12-22T08:41:58.499Z,63.77
2022-12-22T08:44:24.860Z,62.83
2022-12-22T08:46:51.313Z,62.82
2022-12-22T08:49:17.605Z,63.84
2022-12-22T08:51:43.944Z,66.44
2022-12-22T08:54:10.270Z,65.61
2022-12-22T08:56:36.675Z,65.27
2022-12-22T08:59:03.030Z,65.00
2022-12-22T09:01:29.507Z,64.62
2022-12-22T09:03:55.721Z,65.18
2022-12-22T09:06:26.967Z,66.17
2022-12-22T09:08:48.379Z,62.95
2022-12-22T09:11:14.763Z,63.74
2022-12-22T09:13:41.138Z,64.10
2022-12-22T09:16:07.554Z,62.33
2022-12-22T09:18:33.865Z,61.40
2022-12-22T09:21:00.203Z,60.74
2022-12-22T09:23:26.562Z,61.19
2022-12-22T09:25:52.932Z,62.46
2022-12-22T09:28:19.253Z,59.99
2022-12-22T09:30:45.595Z,60.07
2022-12-22T09:33:11.944Z,59.67
2022-12-22T09:35:38.266Z,58.97
2022-12-22T09:38:04.628Z,59.46
2022-12-22T09:40:31.010Z,59.00
2022-12-22T09:42:57.326Z,58.50
2022-12-22T09:45:23.707Z,58.15
2022-12-22T09:47:50.039Z,57.78
2022-12-22T09:50:16.365Z,58.14
2022-12-22T09:52:42.787Z,56.33
2022-12-22T09:55:09.136Z,54.94
2022-12-22T09:57:35.493Z,55.47
2022-12-22T10:00:01.872Z,55.39
2022-12-22T10:02:28.275Z,54.89
2022-12-22T10:04:54.617Z,55.53
2022-12-22T10:07:20.965Z,53.71
2022-12-22T10:09:50.753Z,53.29
2022-12-22T10:12:13.692Z,52.74
2022-12-22T10:14:40.088Z,53.71
2022-12-22T10:17:06.467Z,53.50
2022-12-22T10:19:32.742Z,52.71
2022-12-22T10:21:59.108Z,53.19
2022-12-22T10:24:25.444Z,53.35
2022-12-22T10:26:51.810Z,52.91
2022-12-22T10:29:18.162Z,51.33
2022-12-22T10:31:44.551Z,51.10
2022-12-22T10:34:10.872Z,51.16
2022-12-22T10:36:37.226Z,50.98
2022-12-22T10:39:03.570Z,50.76
2022-12-22T10:41:29.883Z,49.55
2022-12-22T10:43:56.313Z,49.36
2022-12-22T10:46:22.677Z,49.08
2022-12-22T10:48:48.977Z,48.38
2022-12-22T10:51:15.356Z,49.62
2022-12-22T10:53:41.676Z,49.04
2022-12-22T10:56:08.004Z,48.82
2022-12-22T10:58:34.359Z,49.60
2022-12-22T11:01:00.785Z,49.65
2022-12-22T11:03:27.127Z,48.55
2022-12-22T11:05:53.393Z,47.03
2022-12-22T11:08:19.776Z,46.73
2022-12-22T11:10:46.136Z,46.13
2022-12-22T11:13:12.516Z,46.01
2022-12-22T11:15:38.884Z,46.31
2022-12-22T11:18:05.233Z,47.02
2022-12-22T11:20:31.604Z,46.65
2022-12-22T11:22:57.966Z,45.99
2022-12-22T11:25:24.331Z,45.77
2022-12-22T11:27:50.741Z,45.56
2022-12-22T11:30:17.037Z,46.41
2022-12-22T11:32:43.382Z,45.67
2022-12-22T11:35:09.749Z,45.69
2022-12-22T11:37:36.137Z,45.72
2022-12-22T11:40:02.514Z,45.34
2022-12-22T11:42:28.834Z,45.42
2022-12-22T11:44:55.149Z,45.20
2022-12-22T11:47:21.591Z,44.00
2022-12-22T11:49:47.902Z,44.40
2022-12-22T11:52:14.259Z,45.31
2022-12-22T11:54:40.647Z,45.08
2022-12-22T11:57:06.990Z,45.37
2022-12-22T11:59:33.367Z,44.58
2022-12-22T12:01:59.804Z,44.38
2022-12-22T12:04:26.143Z,44.37
2022-12-22T12:06:52.459Z,44.06
2022-12-22T12:09:18.792Z,45.30
2022-12-22T12:11:45.179Z,45.50
2022-12-22T12:14:11.554Z,45.85
2022-12-22T12:16:38.005Z,46.37
2022-12-22T12:19:04.307Z,45.59
2022-12-22T12:21:30.732Z,45.17
2022-12-22T12:23:57.019Z,45.40
2022-12-22T12:26:23.451Z,45.71
2022-12-22T12:28:49.806Z,45.10
2022-12-22T12:31:19.040Z,44.23
2022-12-22T12:33:42.513Z,44.94
2022-12-22T12:36:08.897Z,44.68
2022-12-22T12:41:01.598Z,43.76
2022-12-22T12:43:27.950Z,43.84
2022-12-22T12:45:54.353Z,43.92
2022-12-22T12:48:20.679Z,44.51
2022-12-22T12:50:47.027Z,45.29
2022-12-22T12:53:13.376Z,46.39
2022-12-22T12:55:39.742Z,46.67
2022-12-22T12:58:06.133Z,47.26
2022-12-22T13:00:32.512Z,47.20
2022-12-22T13:02:58.909Z,46.83
2022-12-22T13:05:25.195Z,47.01
2022-12-22T13:07:51.549Z,47.41
2022-12-22T13:10:17.981Z,48.38
2022-12-22T13:12:44.328Z,48.56
2022-12-22T13:15:10.676Z,48.82
2022-12-22T13:17:37.095Z,49.21
2022-12-22T13:20:03.420Z,49.56
2022-12-22T13:22:29.774Z,50.51
2022-12-22T13:24:56.158Z,50.82
2022-12-22T13:27:22.502Z,51.55
2022-12-22T13:29:48.880Z,51.67
2022-12-22T13:32:15.226Z,51.48
2022-12-22T13:35:04.322Z,51.71
2022-12-22T13:37:07.967Z,51.92
2022-12-22T13:39:34.352Z,52.68
2022-12-22T13:42:00.800Z,53.20
2022-12-22T13:44:27.081Z,53.72
2022-12-22T13:46:53.485Z,54.36
2022-12-22T13:49:36.229Z,54.83
2022-12-22T13:51:46.166Z,54.76
2022-12-22T13:54:12.936Z,55.09
2022-12-22T13:56:38.867Z,55.93
2022-12-22T13:59:05.199Z,56.87
2022-12-22T14:01:31.578Z,57.42
2022-12-22T14:04:01.514Z,57.53
2022-12-22T14:06:24.205Z,57.70
2022-12-22T14:08:50.578Z,57.29
2022-12-22T14:11:17.012Z,57.90
2022-12-22T14:13:43.343Z,58.12
2022-12-22T14:16:09.707Z,57.28
2022-12-22T14:18:36.006Z,57.40
2022-12-22T14:21:02.395Z,57.32
2022-12-22T14:23:28.764Z,57.50
2022-12-22T14:25:55.099Z,57.75
2022-12-22T14:28:21.483Z,58.20
2022-12-22T14:30:47.879Z,58.19
2022-12-22T14:33:14.239Z,58.53
2022-12-22T14:35:40.586Z,58.63
2022-12-22T14:38:06.967Z,58.57
2022-12-22T14:40:33.276Z,58.61
2022-12-22T14:42:59.622Z,58.70
2022-12-22T14:45:25.946Z,58.74
2022-12-22T14:47:52.279Z,59.03
2022-12-22T14:50:18.609Z,59.32
2022-12-22T14:52:45.004Z,59.27
2022-12-22T14:55:11.402Z,59.50
2022-12-22T14:57:37.722Z,59.86
2022-12-22T15:00:04.081Z,60.26
2022-12-22T15:02:35.136Z,60.39
2022-12-22T15:04:56.776Z,60.98
2022-12-22T15:08:04.063Z,61.24
2022-12-22T15:10:15.248Z,61.64
2022-12-22T15:12:15.872Z,61.73
2022-12-22T15:14:42.198Z,62.20
2022-12-22T15:17:08.552Z,62.58
2022-12-22T15:19:34.940Z,62.85
2022-12-22T15:22:01.260Z,63.25
2022-12-22T15:24:27.618Z,63.45
2022-12-22T15:26:53.949Z,63.83
2022-12-22T15:29:20.431Z,64.48
2022-12-22T15:31:46.739Z,65.02
2022-12-22T15:34:13.107Z,65.35
2022-12-22T15:36:39.481Z,65.69
2022-12-22T15:39:05.855Z,66.15
2022-12-22T15:41:32.179Z,66.60
2022-12-22T15:43:59.304Z,66.76
2022-12-22T15:46:24.986Z,67.05
2022-12-22T15:48:51.217Z,67.17
2022-12-22T15:51:17.601Z,67.60
2022-12-22T15:53:44.022Z,67.80
2022-12-22T15:56:17.048Z,68.29
2022-12-22T15:58:36.675Z,68.75
2022-12-22T16:01:03.171Z,69.05
2022-12-22T16:03:29.458Z,69.27
2022-12-22T16:05:55.784Z,69.30
2022-12-22T16:08:22.163Z,69.47
2022-12-22T16:10:48.484Z,69.72
2022-12-22T16:13:14.855Z,70.06
2022-12-22T16:15:41.434Z,70.47
2022-12-22T16:18:08.321Z,70.74
2022-12-22T16:20:37.826Z,70.79
2022-12-22T16:23:01.198Z,70.97
2022-12-22T16:25:27.560Z,71.01
2022-12-22T16:27:53.884Z,71.19
2022-12-22T16:30:20.237Z,71.19
2022-12-22T16:32:46.625Z,71.36
2022-12-22T16:35:12.984Z,71.59
2022-12-22T16:37:39.371Z,72.10
2022-12-22T16:40:05.738Z,71.82
2022-12-22T16:45:16.108Z,72.19
2022-12-22T16:47:42.489Z,72.23
2022-12-22T16:50:08.818Z,72.12
2022-12-22T16:52:35.198Z,71.92
2022-12-22T16:55:01.540Z,72.32
2022-12-22T16:57:27.918Z,72.59
2022-12-22T16:59:54.231Z,72.70
2022-12-22T17:02:20.744Z,72.85
2022-12-22T17:04:46.949Z,73.05
2022-12-22T17:07:13.342Z,73.30
2022-12-22T17:09:39.663Z,73.66
2022-12-22T17:12:06.074Z,73.92
2022-12-22T17:14:32.453Z,73.88
2022-12-22T17:16:59.657Z,73.89
2022-12-22T17:19:25.976Z,73.93
2022-12-22T17:21:52.365Z,73.81
2022-12-22T17:24:22.858Z,73.88
2022-12-22T17:26:45.041Z,74.52
2022-12-22T17:29:11.437Z,74.89
2022-12-22T17:31:37.924Z,75.21
2022-12-22T17:34:04.131Z,75.51
2022-12-22T17:36:30.551Z,75.95
2022-12-22T17:38:56.920Z,76.22
2022-12-22T17:41:23.738Z,76.62
2022-12-22T17:43:51.160Z,76.93
2022-12-22T17:46:17.586Z,77.18
2022-12-22T17:48:43.919Z,77.41
2022-12-22T17:51:10.248Z,77.65
2022-12-22T17:53:40.945Z,77.89
2022-12-22T17:56:08.140Z,77.93
2022-12-22T17:58:29.355Z,77.72
2022-12-22T18:00:55.713Z,78.08
2022-12-22T18:03:22.393Z,78.27
2022-12-22T18:05:48.461Z,78.25
2022-12-22T18:08:14.767Z,78.49
2022-12-22T18:10:41.113Z,78.70
2022-12-22T18:13:07.427Z,78.85
2022-12-22T18:15:33.787Z,78.99
2022-12-22T18:18:00.109Z,79.51
2022-12-22T18:20:26.481Z,80.13
2022-12-22T18:22:52.894Z,80.59
2022-12-22T18:25:19.220Z,80.94
2022-12-22T18:27:45.601Z,80.93
2022-12-22T18:30:11.994Z,80.92
2022-12-22T18:32:38.349Z,81.29
2022-12-22T18:35:04.741Z,81.71
2022-12-22T18:37:31.127Z,81.92
2022-12-22T18:39:57.525Z,82.03
2022-12-22T18:42:23.885Z,82.16
2022-12-22T18:44:50.249Z,82.37
2022-12-22T18:47:16.667Z,82.87
2022-12-22T18:49:43.017Z,83.10
2022-12-22T18:52:09.286Z,83.12
2022-12-22T18:54:35.662Z,83.04
2022-12-22T18:57:01.987Z,82.64
2022-12-22T18:59:28.337Z,82.35
2022-12-22T19:01:54.853Z,82.15
2022-12-22T19:04:21.019Z,81.79
2022-12-22T19:06:47.429Z,81.40
2022-12-22T19:09:13.761Z,81.85
2022-12-22T19:11:40.141Z,82.17
2022-12-22T19:14:06.482Z,81.93
2022-12-22T19:16:32.895Z,81.42
2022-12-22T19:18:59.232Z,81.26
2022-12-22T19:21:25.545Z,81.30
2022-12-22T19:23:52.155Z,81.52
2022-12-22T19:26:18.489Z,81.84
2022-12-22T19:28:44.826Z,82.00
2022-12-22T19:31:11.304Z,82.37
2022-12-22T19:33:37.562Z,82.66
2022-12-22T19:36:03.878Z,82.73
2022-12-22T19:38:30.290Z,83.18
2022-12-22T19:40:56.631Z,83.48
2022-12-22T19:43:22.976Z,83.60
2022-12-22T19:45:49.307Z,83.65
2022-12-22T19:48:15.627Z,84.16
2022-12-22T19:50:41.986Z,84.31
2022-12-22T19:53:08.356Z,84.67
2022-12-22T19:55:34.679Z,84.75
2022-12-22T19:58:01.063Z,84.71
2022-12-22T20:00:27.496Z,84.89
2022-12-22T20:02:53.886Z,84.84
2022-12-22T20:05:20.068Z,84.87
2022-12-22T20:07:46.453Z,84.76
2022-12-22T20:10:12.805Z,85.02
2022-12-22T20:12:39.201Z,84.96
2022-12-22T20:15:05.568Z,85.07
2022-12-22T20:17:31.923Z,85.28
2022-12-22T20:19:58.414Z,85.43
2022-12-22T20:22:24.659Z,85.89
2022-12-22T20:24:51.018Z,86.35
2022-12-22T20:27:17.338Z,87.01
2022-12-22T20:29:43.699Z,87.41
2022-12-22T20:32:10.101Z,87.43
2022-12-22T20:34:36.377Z,87.49
2022-12-22T20:37:02.717Z,87.88
2022-12-22T20:39:29.079Z,88.24
2022-12-22T20:41:55.412Z,88.28
2022-12-22T20:44:21.776Z,88.13
2022-12-22T20:46:48.153Z,87.88
2022-12-22T20:49:14.497Z,87.42
2022-12-22T20:51:40.901Z,87.18
2022-12-22T20:54:07.213Z,86.83
2022-12-22T20:56:33.593Z,86.52
2022-12-22T20:58:59.966Z,86.25
2022-12-22T21:01:26.452Z,86.20
2022-12-22T21:03:52.813Z,86.30
2022-12-22T21:06:19.050Z,86.40
2022-12-22T21:08:45.397Z,86.48
2022-12-22T21:11:11.763Z,86.60
2022-12-22T21:13:38.121Z,86.38
2022-12-22T21:16:04.529Z,86.59
2022-12-22T21:18:31.019Z,86.72
2022-12-22T21:20:57.443Z,86.81
2022-12-22T21:23:23.793Z,86.88
2022-12-22T21:25:50.171Z,86.64
2022-12-22T21:28:16.664Z,86.70
2022-12-22T21:30:43.048Z,86.80
2022-12-22T21:33:09.334Z,87.30
2022-12-22T21:35:35.700Z,87.33
2022-12-22T21:38:02.078Z,87.67
2022-12-22T21:40:28.426Z,87.81
2022-12-22T21:42:54.772Z,88.37
2022-12-22T21:45:21.107Z,88.71
2022-12-22T21:47:47.468Z,88.79
2022-12-22T21:50:13.841Z,88.50
2022-12-22T21:52:40.206Z,88.63
2022-12-22T21:55:06.596Z,88.60
2022-12-22T21:57:32.904Z,88.78
2022-12-22T21:59:59.241Z,88.71
2022-12-22T22:02:25.745Z,88.68
2022-12-22T22:04:54.984Z,88.69
2022-12-22T22:07:18.370Z,88.34
2022-12-22T22:09:44.763Z,88.35
2022-12-22T22:12:11.074Z,88.78
2022-12-22T22:14:37.467Z,88.84
2022-12-22T22:17:03.819Z,89.24
2022-12-22T22:19:30.158Z,89.39
2022-12-22T22:21:56.480Z,89.27
2022-12-22T22:24:22.918Z,89.06
2022-12-22T22:26:49.296Z,89.14
2022-12-22T22:29:15.598Z,89.51
2022-12-22T22:31:41.997Z,89.78
2022-12-22T22:34:08.281Z,90.02
2022-12-22T22:36:34.605Z,90.04
2022-12-22T22:39:01.015Z,89.91
2022-12-22T22:41:27.340Z,89.51
2022-12-22T22:43:53.713Z,89.53
2022-12-22T22:46:20.115Z,89.97
2022-12-22T22:48:46.426Z,90.44
2022-12-22T22:51:12.790Z,90.02
2022-12-22T22:53:39.179Z,89.15
2022-12-22T22:56:05.494Z,88.97
2022-12-22T22:58:31.879Z,88.75
2022-12-22T23:00:58.231Z,88.31
2022-12-22T23:03:24.737Z,88.46
2022-12-22T23:05:50.966Z,87.76
2022-12-22T23:08:17.345Z,87.54
2022-12-22T23:10:43.702Z,87.00
2022-12-22T23:13:10.127Z,86.99
2022-12-22T23:15:36.390Z,87.13
2022-12-22T23:18:02.767Z,86.86
2022-12-22T23:20:29.186Z,86.62
2022-12-22T23:22:55.544Z,86.45
2022-12-22T23:25:21.930Z,86.32
2022-12-22T23:27:48.265Z,86.20
2022-12-22T23:30:14.589Z,85.94
2022-12-22T23:32:40.952Z,85.90
2022-12-22T23:35:07.326Z,86.02
2022-12-22T23:37:33.666Z,85.77
2022-12-22T23:40:25.145Z,85.83
2022-12-22T23:42:26.383Z,86.02
2022-12-22T23:44:52.743Z,86.27
2022-12-22T23:47:19.100Z,86.62
2022-12-22T23:49:45.459Z,86.45
2022-12-22T23:52:11.811Z,86.38
2022-12-22T23:54:38.155Z,86.06
2022-12-22T23:57:04.487Z,86.07
2022-12-22T23:59:30.857Z,86.03
